Station: Oenpelli Airport  

  Atmospheric Gas Attenuation - ITU Rec 676-11   ----------------- dB/100km -----------------
Date Time Temp RH % AH g/m3 Dew Point Wind Direction Speed kph Gust kph Barometer mB Rainfall Since 9am 24GHz 47GHz 76GHz 122GHz 134GHz 241GHz
06/05 21:50 28.3 54 14.93 18.1 7 7 1012.7 0 32.1 31.5 56.5 149.2 158.2 549.2
06/05 21:40 28.7 52 14.7 18.1 11 15 1012.7 0 31.6 31.0 55.3 146.0 154.3 535.9
06/05 21:30 28 55 14.96 18.1 7 15 1012.7 0 32.2 31.6 56.8 150.1 159.2 552.7
06/05 21:20 27.9 55 14.88 18 7 7 1012.8 0 32.0 31.5 56.6 149.4 158.3 549.7
06/05 21:10 28.3 54 14.93 18.1 6 6 1012.8 0 32.1 31.5 56.5 149.2 158.2 549.2
06/05 21:00 28.4 54 15.01 18.2 7 13 1012.8 0 32.2 31.6 56.7 149.8 159.0 552.2
06/05 20:50 28.6 52 14.62 18 7 9 1012.7 0 31.4 30.9 55.0 145.3 153.5 532.9
06/05 20:40 29 50 14.36 17.8 9 9 1012.6 0 30.8 30.3 53.7 141.8 149.3 518.5
06/05 20:30 28.8 52 14.78 18 9 15 1012.5 0 31.7 31.0 55.5 146.6 155.2 538.8
06/05 20:20 29.4 49 14.39 17.8 9 11 1012.2 0 30.9 30.2 53.5 141.4 148.9 517.0
06/05 20:10 29.6 48 14.25 17.7 15 19 1012.1 0 30.6 29.9 52.9 139.5 146.7 509.5
06/05 20:00 29.5 50 14.76 18 11 19 1011.9 0 31.6 30.7 54.9 145.0 153.5 532.9
06/05 19:50 29.5 49 14.46 17.9 15 20 1011.8 0 31.0 30.3 53.7 141.9 149.6 519.4
06/05 19:40 29.5 48 14.17 17.6 9 11 1011.5 0 30.4 29.8 52.6 138.8 145.8 506.3
06/05 19:30 29.5 50 14.76 18 9 13 1011.3 0 31.6 30.7 54.9 144.9 153.4 532.6
06/05 19:20 29.8 48 14.4 17.9 9 13 1011.1 0 30.9 30.0 53.3 140.6 148.2 514.4
06/05 19:10 30.1 47 14.33 17.8 9 13 1010.9 0 30.7 29.8 52.8 139.4 146.7 509.3
06/05 19:00 29.8 48 14.4 17.9 9 17 1010.8 0 30.9 30.0 53.2 140.6 148.1 514.3
06/05 18:50 29.9 49 14.78 18.3 6 7 1010.7 0 31.7 30.6 54.7 144.4 152.8 530.6
06/05 18:40 29.8 50 15 18.5 6 7 1010.6 0 32.1 31.0 55.6 146.8 155.8 541.1
06/05 18:30 30.1 49 14.94 18.5 7 11 1010.5 0 32.0 30.8 55.1 145.6 154.4 536.4
06/05 18:20 30.4 48 14.88 18.4 7 9 1010.4 0 31.8 30.6 54.7 144.5 153.1 531.6
06/05 18:10 31 46 14.72 18.3 9 11 1010.3 0 31.4 30.1 53.7 141.7 149.8 520.5
06/05 18:00 31.1 47 15.13 18.5 11 17 1010.2 0 32.3 30.7 55.2 145.7 154.8 537.9
06/05 17:50 31.3 46 14.96 18.6 9 13 1010.1 0 31.9 30.4 54.4 143.6 152.3 529.0
06/05 17:40 31.2 47 15.21 18.8 11 13 1009.9 0 32.4 30.8 55.4 146.4 155.6 540.7
06/05 17:30 31 53 16.97 20.3 4 6 1009.9 0 36.1 33.7 62.6 165.5 179.1 622.6
06/05 17:20 31.3 47 15.29 18.9 6 6 1009.8 0 32.6 30.9 55.6 147.0 156.4 543.5
06/05 17:10 31.4 46 15.04 18.7 6 7 1009.8 0 32.1 30.4 54.6 144.2 153.1 531.8
06/05 17:00 31.8 45 15.04 18.4 11 17 1009.7 0 32.1 30.3 54.3 143.5 152.3 529.1
06/05 16:50 33.1 41 14.68 18.4 11 13 1009.6 0 31.2 29.3 52.1 137.6 145.3 505.0
06/05 16:40 32.7 42 14.72 18.4 11 13 1009.5 0 31.3 29.5 52.5 138.6 146.6 509.2
06/05 16:30 33.5 43 15.72 19.2 7 11 1009.4 0 33.3 30.8 55.7 147.3 157.4 547.3
06/05 16:20 32.1 46 15.62 19.3 6 7 1009.4 0 33.2 31.1 56.3 148.9 159.0 552.5
06/05 16:10 33.9 41 15.31 18.8 15 17 1009.4 0 32.4 30.0 53.9 142.4 151.5 526.8
06/05 16:00 34.1 41 15.47 19 9 15 1009.3 0 32.8 30.2 54.4 143.7 153.1 532.3
06/05 15:50 32.9 42 14.88 18.6 13 15 1009.4 0 31.6 29.7 53.0 139.9 148.1 514.8
06/05 15:40 34.1 42 15.85 19.7 7 9 1009.3 0 33.5 30.8 55.8 147.5 157.8 548.8
06/05 15:30 33.5 41 14.99 18.8 13 19 1009.3 0 31.8 29.6 53.0 139.9 148.4 515.6
06/05 15:20 33.8 39 14.49 18.3 15 15 1009.3 0 30.8 28.8 50.9 134.5 141.7 492.4
06/05 15:10 34 40 15.02 18.8 17 20 1009.4 0 31.8 29.5 52.8 139.4 147.8 513.7
06/05 15:00 34.2 41 15.55 19.1 13 22 1009.4 0 32.9 30.3 54.6 144.3 153.9 535.1
06/05 14:50 34 40 15.02 18.8 15 19 1009.4 0 31.8 29.5 52.8 139.4 147.8 513.7
06/05 14:40 34 40 15.02 18.8 13 15 1009.5 0 31.8 29.5 52.8 139.4 147.8 513.7
06/05 14:30 34.1 40 15.09 18.6 11 17 1009.7 0 32.0 29.6 53.0 139.9 148.5 516.1
06/05 14:20 34.6 39 15.11 19 11 13 1009.8 0 32.0 29.5 52.7 139.3 147.8 513.8
06/05 14:10 34.2 39 14.79 18.6 17 20 1010 0 31.4 29.1 51.8 136.8 144.7 502.9
06/05 14:00 33.8 42 15.6 19.1 15 22 1010.1 0 33.0 30.5 55.1 145.6 155.4 540.3
06/05 13:50 34.1 39 14.72 18.5 15 19 1010.2 0 31.2 29.1 51.6 136.3 144.1 500.6
06/05 13:40 34.5 40 15.41 19.3 15 19 1010.3 0 32.6 30.0 53.9 142.5 151.7 527.5
06/05 13:30 34.4 40 15.33 19.2 13 22 1010.4 0 32.4 29.9 53.7 141.9 150.9 524.7
06/05 13:20 33.4 46 16.73 20.2 13 19 1010.5 0 35.4 32.4 59.8 158.1 170.6 593.3
06/05 13:10 33.8 41 15.23 19 13 19 1010.7 0 32.3 30.0 53.7 142.0 150.9 524.5
06/05 13:00 33.5 44 16.09 19.9 13 28 1010.8 0 34.1 31.4 57.2 151.3 162.3 564.1
06/05 12:50 33.2 44 15.84 19.6 17 20 1011 0 33.6 31.1 56.5 149.3 159.7 555.3
06/05 12:40 32.9 43 15.23 19 19 22 1011.1 0 32.4 30.3 54.4 143.6 152.7 530.6
06/05 12:30 33.6 44 16.17 20 15 22 1011.2 0 34.2 31.5 57.5 152.0 163.1 567.1
06/05 12:20 34.2 43 16.31 20.2 15 20 1011.4 0 34.5 31.5 57.6 152.3 163.7 569.1
06/05 12:10 33.4 42 15.28 19.1 19 20 1011.5 0 32.4 30.2 54.2 143.3 152.4 529.6
06/05 12:00 33.6 44 16.17 19.7 19 28 1011.7 0 34.2 31.5 57.5 152.0 163.2 567.3
06/05 11:50 33.6 42 15.44 19.2 24 32 1011.9 0 32.7 30.4 54.7 144.6 154.0 535.4
06/05 11:40 33 43 15.31 19.1 20 24 1012 0 32.5 30.4 54.6 144.4 153.6 533.8
06/05 11:30 32.7 43 15.07 18.8 20 32 1012.1 0 32.0 30.1 53.9 142.5 151.2 525.3
06/05 11:20 32.5 44 15.26 19 20 26 1012.2 0 32.4 30.5 54.8 144.8 154.0 535.0
06/05 11:10 32.5 44 15.26 19 19 24 1012.3 0 32.4 30.5 54.8 144.8 154.0 535.1
06/05 11:00 32.6 46 16.04 19.5 17 30 1012.4 0 34.0 31.7 57.8 152.7 163.7 569.0
06/05 10:50 32.2 48 16.38 19.8 22 28 1012.5 0 34.8 32.4 59.4 157.1 168.9 587.3
06/05 09:10 29.1 61 17.62 20.8 20 28 1013 0 37.6 35.7 67.1 177.4 193.1 670.9
06/05 09:00 28.8 62 17.62 20.8 17 28 1012.9 0 37.7 35.8 67.3 178.1 193.8 673.5
06/05 08:50 28.6 62 17.43 20.6 24 26 1012.9 0 37.3 35.6 66.7 176.3 191.6 665.9
06/05 08:40 28.2 63 17.32 20.7 15 17 1012.9 0 37.1 35.5 66.6 176.0 191.1 663.9
06/05 08:30 28 64 17.41 20.6 15 24 1012.8 0 37.3 35.8 67.1 177.5 192.9 670.0
06/05 08:20 27.9 65 17.58 20.9 15 22 1012.8 0 37.7 36.1 67.9 179.7 195.5 679.3
06/05 08:10 27.4 65 17.1 20.4 20 24 1012.7 0 36.7 35.5 66.3 175.2 189.9 659.8
06/05 08:00 27.1 66 17.08 20.4 17 26 1012.5 0 36.7 35.6 66.4 175.7 190.4 661.3
06/05 07:50 26.8 66 16.8 20.1 19 26 1012.4 0 36.1 35.2 65.5 173.1 187.1 650.0
06/05 07:40 26.4 68 16.93 20 15 19 1012.4 0 36.4 35.6 66.4 175.5 190.0 659.8
06/05 07:30 25.9 71 17.19 20.2 11 15 1012.3 0 37.0 36.3 68.0 179.7 195.0 677.2
06/05 07:20 25.5 71 16.81 20 9 13 1012.2 0 36.3 35.7 66.6 176.1 190.5 661.4
06/05 07:10 24.7 73 16.52 19.7 13 17 1012.1 0 35.7 35.6 66.0 174.5 188.3 653.6
06/05 07:00 24.3 75 16.6 19.6 9 15 1012 0 35.9 35.9 66.7 176.3 190.4 661.1
06/05 06:50 23.8 77 16.56 19.5 7 9 1011.9 0 35.9 36.0 67.0 177.0 191.1 663.3
06/05 06:40 23.6 78 16.59 19.5 6 7 1011.8 0 36.0 36.1 67.3 177.8 192.0 666.5
06/05 06:30 23.3 79 16.52 19.5 4 6 1011.7 0 35.9 36.1 67.2 177.7 191.7 665.5
06/05 06:20 23.5 78 16.49 19.4 4 4 1011.5 0 35.8 36.0 66.9 176.8 190.8 662.1
06/05 06:10 23.7 77 16.47 19.4 4 6 1011.4 0 35.7 35.9 66.6 176.1 189.9 659.3
06/05 06:00 24.3 73 16.15 19.1 7 11 1011.3 0 35.0 35.0 64.7 170.9 183.8 637.9
06/05 05:50 24.5 72 16.11 19.1 11 13 1011.2 0 34.9 34.9 64.3 170.0 182.7 634.2
06/05 05:40 24.3 73 16.15 19.1 6 7 1011.2 0 35.0 35.0 64.7 170.9 183.8 637.9
06/05 05:30 24.4 74 16.47 19.5 7 13 1011.2 0 35.7 35.6 66.0 174.5 188.2 653.2
06/05 05:20 24 75 16.32 19.3 7 7 1011.1 0 35.4 35.4 65.7 173.6 187.0 649.0
06/05 05:10 23.8 77 16.56 19.5 7 7 1011.1 0 35.9 36.0 66.9 176.9 191.0 662.9
06/05 05:00 23.7 77 16.47 19.4 6 7 1011.2 0 35.7 35.8 66.6 176.1 189.9 659.2
06/05 04:50 23.7 78 16.68 19.6 6 6 1011.1 0 36.2 36.2 67.6 178.6 193.0 670.0
06/05 04:40 23.9 77 16.66 19.6 4 4 1011.1 0 36.1 36.1 67.3 177.9 192.2 667.2
06/05 04:30 24.2 75 16.5 19.5 6 9 1011.1 0 35.7 35.7 66.3 175.3 189.1 656.4
06/05 04:20 24.2 74 16.28 19.4 4 6 1011.1 0 35.3 35.3 65.3 172.6 185.9 645.3
06/05 04:10 24.4 73 16.25 19.4 4 4 1011.1 0 35.2 35.2 65.0 171.8 185.0 642.1
06/05 04:00 24.8 72 16.39 19.4 6 11 1011.1 0 35.5 35.2 65.3 172.6 186.0 645.7
06/05 03:50 24.9 72 16.48 19.5 6 7 1011.1 0 35.6 35.4 65.6 173.4 187.1 649.4

Last Refresh: 06-May-2026 22:01:46

Bureau of Meteorology